Time;durP1;ratioP1;P1;durP2;ratioP2;P2;SDS_P1;SDS_P2;PMS_P1;PMS_P2;Temp;Humidity;BMP_temperature;BMP_pressure;BME280_temperature;BME280_humidity;BME280_pressure;Samples;Min_cycle;Max_cycle;Signal;HPM_P1;HPM_P2
2023/08/23 00:02:50;;;;;;;10.20;6.40;;;;;;;24.65;65.73;99014.04;223099;182;138772;-62
2023/08/23 00:07:54;;;;;;;10.90;6.10;;;;;;;24.58;65.90;99020.92;223306;182;151070;-61
2023/08/23 00:12:57;;;;;;;13.10;6.50;;;;;;;24.54;66.12;99023.77;223331;183;145598;-61
2023/08/23 00:18:00;;;;;;;8.90;6.70;;;;;;;24.50;66.33;99009.33;223288;182;150104;-60
2023/08/23 00:23:04;;;;;;;8.00;6.20;;;;;;;24.46;66.51;99001.64;223275;182;139473;-59
2023/08/23 00:28:07;;;;;;;8.80;5.90;;;;;;;24.44;66.55;99003.91;223254;216;146388;-61
2023/08/23 00:33:16;;;;;;;7.80;5.50;;;;;;;24.46;66.50;99018.55;223202;186;139443;-58
2023/08/23 00:38:19;;;;;;;7.20;5.80;;;;;;;24.52;66.17;99023.39;223356;182;137452;-58
2023/08/23 00:43:23;;;;;;;9.00;6.10;;;;;;;24.49;66.11;99017.21;223258;182;146418;-59
2023/08/23 00:48:26;;;;;;;9.80;5.90;;;;;;;24.46;65.96;99010.98;223191;183;138976;-60
2023/08/23 00:53:30;;;;;;;7.60;5.70;;;;;;;24.45;65.91;99009.92;223265;182;137355;-59
2023/08/23 00:58:33;;;;;;;8.30;5.80;;;;;;;24.41;66.06;99012.44;223218;189;146074;-58
2023/08/23 01:03:37;;;;;;;6.70;5.90;;;;;;;24.39;65.97;99020.82;223217;182;139749;-59
2023/08/23 01:08:40;;;;;;;8.30;5.40;;;;;;;24.35;66.29;99021.01;223318;184;138796;-59
2023/08/23 01:13:57;;;;;;;8.70;6.20;;;;;;;24.35;66.23;99022.02;223294;216;145480;-57
2023/08/23 01:19:19;;;;;;;9.70;5.50;;;;;;;24.37;66.27;99007.31;223129;182;139215;-61
2023/08/23 01:24:22;;;;;;;8.00;6.10;;;;;;;24.45;66.18;98995.63;223320;182;137017;-60
2023/08/23 01:29:26;;;;;;;11.60;6.20;;;;;;;24.47;66.16;98986.67;223212;182;145641;-58
2023/08/23 01:34:37;;;;;;;8.30;6.40;;;;;;;24.46;66.31;98985.60;223073;182;140174;-59
2023/08/23 01:39:41;;;;;;;11.20;6.70;;;;;;;24.42;66.50;98982.07;223159;182;137053;-59
2023/08/23 01:44:45;;;;;;;9.10;6.40;;;;;;;24.35;66.67;98981.04;223168;182;147654;-61
2023/08/23 01:49:48;;;;;;;10.10;5.90;;;;;;;24.27;66.69;98975.58;223254;182;139231;-63
2023/08/23 01:54:51;;;;;;;7.80;5.80;;;;;;;24.25;67.03;98981.83;223239;183;139654;-62
2023/08/23 01:59:56;;;;;;;8.90;6.10;;;;;;;24.25;67.19;98983.79;223178;182;146170;-60
2023/08/23 02:04:59;;;;;;;11.70;6.50;;;;;;;24.21;67.42;98985.39;223189;182;139533;-59
2023/08/23 02:10:09;;;;;;;12.00;6.60;;;;;;;24.23;67.30;98977.75;223265;183;140461;-61
2023/08/23 02:15:12;;;;;;;10.00;6.90;;;;;;;24.20;67.36;98981.35;223237;182;147312;-60
2023/08/23 02:20:15;;;;;;;9.50;7.20;;;;;;;24.18;67.50;98974.95;223174;182;138758;-58
2023/08/23 02:25:19;;;;;;;9.70;6.90;;;;;;;24.16;67.70;98983.33;223236;183;137560;-60
2023/08/23 02:30:22;;;;;;;10.50;6.70;;;;;;;24.07;68.11;98988.66;223197;183;145670;-61
2023/08/23 02:35:25;;;;;;;10.40;7.20;;;;;;;24.05;68.53;99000.62;223154;183;138857;-60
2023/08/23 02:40:28;;;;;;;9.90;7.20;;;;;;;24.03;68.67;99006.95;223243;182;141199;-61
2023/08/23 02:45:31;;;;;;;14.20;8.40;;;;;;;24.06;68.90;99006.42;223177;183;145974;-61
2023/08/23 02:50:34;;;;;;;11.40;8.40;;;;;;;24.03;69.16;99008.25;223201;183;138975;-59
2023/08/23 02:55:38;;;;;;;12.40;8.60;;;;;;;23.97;69.48;99016.42;223212;182;136707;-58
2023/08/23 03:00:41;;;;;;;13.00;8.50;;;;;;;23.90;69.77;99019.02;223255;186;146879;-60
2023/08/23 03:06:02;;;;;;;11.60;8.70;;;;;;;23.85;70.17;99019.06;223108;182;138972;-62
2023/08/23 03:11:06;;;;;;;14.10;8.50;;;;;;;23.92;70.42;99028.66;223170;182;138429;-58
2023/08/23 03:16:09;;;;;;;13.00;9.30;;;;;;;23.91;70.26;99025.94;223188;183;145888;-59
2023/08/23 03:21:13;;;;;;;12.80;8.50;;;;;;;23.90;70.34;99029.35;223192;182;139204;-59
2023/08/23 03:26:16;;;;;;;12.80;9.10;;;;;;;23.90;70.58;99036.83;223232;184;137007;-60
2023/08/23 03:31:19;;;;;;;12.10;9.30;;;;;;;23.86;70.60;99038.73;223235;182;144840;-60
2023/08/23 03:36:23;;;;;;;12.20;8.50;;;;;;;23.83;70.68;99026.67;223205;183;139424;-61
2023/08/23 03:41:27;;;;;;;15.50;9.90;;;;;;;23.81;70.80;99023.37;223260;182;138102;-60
2023/08/23 03:46:30;;;;;;;16.60;10.50;;;;;;;23.82;70.99;99020.34;223247;216;146033;-58
2023/08/23 03:51:33;;;;;;;12.10;9.90;;;;;;;23.84;71.04;99014.48;223269;182;141904;-62
2023/08/23 03:56:36;;;;;;;16.50;10.40;;;;;;;23.80;71.03;99018.17;223210;182;137191;-61
2023/08/23 04:01:40;;;;;;;16.50;10.80;;;;;;;23.77;71.23;99022.73;223206;183;148165;-59
2023/08/23 04:06:43;;;;;;;13.90;10.30;;;;;;;23.75;71.41;99028.38;223205;183;140727;-61
2023/08/23 04:11:46;;;;;;;14.10;10.10;;;;;;;23.69;71.62;99029.48;223276;182;138912;-60
2023/08/23 04:16:50;;;;;;;16.30;11.00;;;;;;;23.74;71.83;99035.61;223162;216;147906;-57
2023/08/23 04:21:53;;;;;;;15.00;11.40;;;;;;;23.76;71.95;99046.98;223245;183;139373;-57
2023/08/23 04:26:56;;;;;;;17.50;11.70;;;;;;;23.68;72.03;99046.10;223223;184;137424;-61
2023/08/23 04:31:59;;;;;;;16.10;11.70;;;;;;;23.65;72.28;99036.75;223227;186;148050;-59
2023/08/23 04:37:07;;;;;;;16.70;11.80;;;;;;;23.64;72.48;99021.17;223128;182;138667;-60
2023/08/23 04:42:10;;;;;;;17.30;11.90;;;;;;;23.62;72.77;99025.02;223201;186;138693;-62
2023/08/23 04:47:13;;;;;;;16.90;12.50;;;;;;;23.61;72.94;99036.79;223229;183;148155;-59
2023/08/23 04:52:17;;;;;;;23.50;13.10;;;;;;;23.59;73.01;99050.67;223219;217;139659;-60
2023/08/23 04:57:20;;;;;;;18.80;12.40;;;;;;;23.60;73.26;99062.70;223220;183;137482;-60
2023/08/23 05:02:26;;;;;;;20.80;13.10;;;;;;;23.58;73.25;99057.34;223255;182;147321;-60
2023/08/23 05:07:30;;;;;;;19.60;14.30;;;;;;;23.58;73.45;99059.52;223279;183;140073;-59
2023/08/23 05:12:33;;;;;;;20.40;15.80;;;;;;;23.66;73.42;99052.65;223163;183;139788;-59
2023/08/23 05:17:36;;;;;;;20.00;15.90;;;;;;;23.74;73.30;99060.61;223155;181;147381;-58
2023/08/23 05:22:41;;;;;;;24.80;17.10;;;;;;;23.81;73.24;99068.13;223243;182;138840;-61
2023/08/23 05:27:44;;;;;;;20.00;14.40;;;;;;;23.87;72.96;99070.17;223211;184;138721;-62
2023/08/23 05:32:48;;;;;;;18.80;15.00;;;;;;;23.92;72.91;99071.14;223130;182;147751;-62
2023/08/23 05:37:52;;;;;;;22.90;17.10;;;;;;;23.97;72.65;99077.35;223206;183;138568;-59
2023/08/23 05:42:58;;;;;;;20.90;16.50;;;;;;;23.98;72.54;99082.95;223177;183;258434;-59
2023/08/23 05:48:04;;;;;;;26.80;20.40;;;;;;;23.96;72.68;99083.95;223192;183;147750;-60
2023/08/23 05:53:18;;;;;;;25.20;18.20;;;;;;;23.93;72.58;99081.18;223203;183;138660;-60
2023/08/23 05:58:21;;;;;;;29.40;18.90;;;;;;;23.95;72.49;99078.21;223267;216;139010;-60
2023/08/23 06:03:25;;;;;;;25.40;20.20;;;;;;;23.97;72.68;99085.07;223285;184;147707;-60
2023/08/23 06:08:28;;;;;;;25.80;20.70;;;;;;;23.98;72.57;99086.96;223240;182;138978;-60
2023/08/23 06:13:32;;;;;;;29.70;20.80;;;;;;;23.96;72.50;99082.87;223215;183;137170;-61
2023/08/23 06:18:35;;;;;;;29.30;21.80;;;;;;;24.02;72.47;99085.20;223229;183;148856;-61
2023/08/23 06:23:43;;;;;;;29.10;20.50;;;;;;;24.06;72.44;99090.14;223185;183;139069;-58
2023/08/23 06:28:49;;;;;;;33.70;19.50;;;;;;;24.15;72.30;99094.80;223231;182;138323;-60
2023/08/23 06:33:53;;;;;;;28.20;19.00;;;;;;;24.17;71.69;99088.52;223135;183;149771;-59
2023/08/23 06:38:56;;;;;;;29.20;20.80;;;;;;;24.13;71.50;99094.04;223138;182;140010;-60
2023/08/23 06:44:01;;;;;;;33.60;22.50;;;;;;;24.19;71.85;99090.66;223149;182;138751;-58
2023/08/23 06:49:04;;;;;;;37.70;21.80;;;;;;;24.31;71.69;99094.64;223155;183;148327;-57
2023/08/23 06:54:07;;;;;;;28.50;19.00;;;;;;;24.43;70.93;99098.10;223118;183;139393;-59
2023/08/23 06:59:10;;;;;;;24.20;17.50;;;;;;;24.52;70.36;99099.98;223186;183;139657;-57
2023/08/23 07:04:14;;;;;;;28.10;19.10;;;;;;;24.70;69.97;99107.64;223265;183;147493;-59
2023/08/23 07:09:18;;;;;;;25.50;19.10;;;;;;;24.83;69.39;99109.54;223141;184;140258;-59
2023/08/23 07:14:21;;;;;;;24.00;17.80;;;;;;;24.93;69.13;99114.00;222798;185;137925;-58
2023/08/23 07:19:26;;;;;;;26.00;19.60;;;;;;;25.01;68.87;99122.42;223250;182;147809;-56
2023/08/23 07:24:30;;;;;;;31.80;20.70;;;;;;;25.02;68.35;99119.69;223124;182;139497;-59
2023/08/23 07:29:39;;;;;;;23.50;19.00;;;;;;;25.01;68.10;99124.02;223190;183;138331;-59
2023/08/23 07:34:42;;;;;;;29.00;19.10;;;;;;;25.04;67.87;99128.69;223135;182;147473;-59
2023/08/23 07:39:45;;;;;;;25.70;19.70;;;;;;;25.12;67.59;99130.75;223141;182;139055;-59
2023/08/23 07:44:49;;;;;;;28.40;20.10;;;;;;;25.20;67.65;99133.86;223264;182;139312;-58
2023/08/23 07:49:52;;;;;;;26.00;20.30;;;;;;;25.32;67.22;99135.20;223274;182;148401;-60
2023/08/23 07:54:55;;;;;;;29.10;20.30;;;;;;;25.35;66.88;99142.16;223227;182;139352;-58
2023/08/23 07:59:59;;;;;;;30.60;19.60;;;;;;;25.36;66.51;99145.98;223352;204;137414;-59
2023/08/23 08:05:03;;;;;;;;;;;;;;;25.38;66.60;99146.67;223319;182;147876;-58
2023/08/23 08:10:06;;;;;;;28.10;19.40;;;;;;;25.40;65.88;99152.61;223258;183;139499;-58
2023/08/23 08:15:10;;;;;;;23.30;17.40;;;;;;;25.37;65.63;99152.45;223281;183;138463;-59
2023/08/23 08:20:13;;;;;;;23.70;17.60;;;;;;;25.36;65.33;99152.57;223245;182;147688;-61
2023/08/23 08:25:16;;;;;;;21.40;17.40;;;;;;;25.50;65.55;99149.84;223168;183;141125;-58
2023/08/23 08:30:19;;;;;;;22.50;15.70;;;;;;;25.64;65.06;99147.08;223219;182;138753;-59
2023/08/23 08:35:23;;;;;;;18.80;15.00;;;;;;;25.70;65.04;99151.88;223239;182;147807;-58
2023/08/23 08:40:26;;;;;;;17.80;12.70;;;;;;;25.76;64.94;99150.50;223199;182;139004;-60
2023/08/23 08:45:30;;;;;;;18.20;11.80;;;;;;;25.80;64.09;99158.32;223227;183;137933;-59
2023/08/23 09:27:11;;;;;;;17.80;11.70;;;;;;;26.19;62.68;99171.47;221594;193;667128;-61
2023/08/23 09:32:35;;;;;;;16.60;12.50;;;;;;;26.19;62.71;99174.66;223141;183;137178;-59
2023/08/23 09:37:43;;;;;;;21.40;14.00;;;;;;;26.21;62.44;99173.60;223162;184;143868;-63
2023/08/23 09:42:48;;;;;;;19.00;14.00;;;;;;;26.07;62.35;99173.12;223202;184;140004;-61
2023/08/23 09:47:58;;;;;;;20.60;12.70;;;;;;;26.00;62.83;99168.84;223213;217;137139;-64
2023/08/23 09:53:06;;;;;;;17.40;13.60;;;;;;;25.99;63.02;99172.70;223083;183;143684;-63
2023/08/23 09:58:10;;;;;;;20.40;12.80;;;;;;;25.97;63.16;99170.98;223165;184;140956;-64
2023/08/23 10:03:13;;;;;;;16.60;12.30;;;;;;;25.94;63.08;99173.98;223370;183;136793;-63
2023/08/23 10:08:18;;;;;;;18.50;14.40;;;;;;;25.89;62.75;99171.33;223262;183;143957;-63
2023/08/23 10:13:22;;;;;;;;;;;;;;;25.92;63.01;99169.77;223179;184;139019;-64
2023/08/23 10:18:27;;;;;;;20.10;15.40;;;;;;;26.04;62.70;99171.00;223253;183;129663;-61
2023/08/23 10:23:33;;;;;;;23.50;15.60;;;;;;;26.09;62.31;99164.08;223215;183;146239;-60
2023/08/23 10:28:47;;;;;;;21.90;16.40;;;;;;;26.23;62.31;99165.25;223110;183;139377;-62
2023/08/23 10:33:55;;;;;;;26.00;17.30;;;;;;;26.23;61.77;99170.63;223092;183;137588;-63
2023/08/23 10:38:58;;;;;;;23.80;17.50;;;;;;;26.18;61.61;99162.13;223085;184;148267;-60
2023/08/23 10:44:02;;;;;;;23.40;17.80;;;;;;;26.22;61.61;99156.05;223168;184;148825;-60
2023/08/23 10:49:05;;;;;;;21.90;18.60;;;;;;;26.31;61.36;99152.89;223313;183;137071;-61
2023/08/23 10:54:12;;;;;;;22.60;18.90;;;;;;;26.38;61.20;99152.40;223097;184;145635;-61
2023/08/23 10:59:15;;;;;;;23.10;19.30;;;;;;;26.50;61.41;99154.95;223219;184;139373;-59
2023/08/23 11:04:19;;;;;;;23.60;18.90;;;;;;;26.49;60.60;99155.36;223135;183;139069;-59
2023/08/23 11:09:31;;;;;;;23.80;20.00;;;;;;;26.64;60.70;99151.42;223288;183;145484;-59
2023/08/23 11:14:34;;;;;;;22.90;19.60;;;;;;;26.91;59.87;99148.42;223119;183;139744;-59
2023/08/23 11:19:38;;;;;;;23.50;19.70;;;;;;;27.13;59.08;99152.15;223134;183;139929;-60
2023/08/23 11:24:41;;;;;;;23.90;20.40;;;;;;;27.23;58.44;99149.23;223181;183;145888;-59
2023/08/23 11:29:45;;;;;;;25.80;22.00;;;;;;;27.15;58.15;99154.05;223140;187;138932;-60
2023/08/23 11:34:49;;;;;;;24.30;19.40;;;;;;;27.02;57.92;99161.29;223261;184;137237;-58
2023/08/23 11:39:59;;;;;;;26.80;20.60;;;;;;;26.95;58.06;99156.95;223157;183;146294;-59
2023/08/23 11:45:04;;;;;;;24.80;21.70;;;;;;;26.99;58.44;99150.30;223047;183;276829;-61
2023/08/23 11:50:12;;;;;;;25.50;19.50;;;;;;;27.09;58.50;99143.08;223147;183;137078;-59
2023/08/23 11:55:23;;;;;;;22.40;17.90;;;;;;;27.20;58.08;99142.27;223224;183;146124;-60
2023/08/23 12:00:26;;;;;;;23.40;17.90;;;;;;;27.21;57.22;99136.66;223160;184;138954;-59
2023/08/23 12:05:29;;;;;;;22.60;18.10;;;;;;;27.22;57.59;99143.30;223236;184;136876;-60
2023/08/23 12:10:33;;;;;;;20.10;17.40;;;;;;;27.55;57.38;99138.74;223116;217;146352;-59
2023/08/23 12:15:36;;;;;;;18.70;15.10;;;;;;;27.93;57.53;99133.94;223130;184;138963;-59
2023/08/23 12:20:39;;;;;;;20.60;16.80;;;;;;;28.35;55.75;99127.59;223163;183;137790;-59
2023/08/23 12:25:42;;;;;;;24.80;17.50;;;;;;;28.51;54.66;99122.48;223154;183;146412;-60
2023/08/23 12:30:46;;;;;;;22.20;17.10;;;;;;;28.56;54.16;99118.33;223175;183;140287;-60
2023/08/23 12:35:49;;;;;;;22.20;17.40;;;;;;;28.78;54.10;99117.54;223400;182;137430;-60
2023/08/23 12:40:53;;;;;;;18.60;16.50;;;;;;;28.77;53.89;99112.73;223297;184;146050;-58
2023/08/23 12:45:56;;;;;;;20.30;15.20;;;;;;;28.68;53.67;99107.55;223303;183;139920;-59
2023/08/23 12:50:59;;;;;;;22.90;15.90;;;;;;;28.56;53.04;99109.52;223443;183;137905;-58
2023/08/23 12:56:03;;;;;;;23.50;15.00;;;;;;;28.36;53.24;99104.64;223321;182;147674;-61
2023/08/23 13:01:06;;;;;;;20.60;15.30;;;;;;;28.17;53.31;99096.68;223289;182;139833;-59
2023/08/23 13:06:09;;;;;;;16.60;14.50;;;;;;;28.22;53.64;99094.83;223405;183;137804;-59
2023/08/23 13:11:12;;;;;;;16.00;12.80;;;;;;;28.66;52.98;99095.45;223361;182;145557;-59
2023/08/23 13:16:15;;;;;;;16.70;12.10;;;;;;;29.08;51.75;99093.64;223330;182;138691;-58
2023/08/23 13:21:18;;;;;;;13.40;11.50;;;;;;;29.31;50.98;99085.49;223229;182;137773;-58
2023/08/23 13:26:21;;;;;;;16.40;10.50;;;;;;;29.59;50.99;99078.83;223306;182;146398;-59
2023/08/23 13:31:25;;;;;;;10.90;9.70;;;;;;;29.75;49.46;99078.66;223277;182;139025;-58
2023/08/23 13:36:29;;;;;;;15.50;10.40;;;;;;;29.60;49.47;99079.67;223278;182;137663;-59
2023/08/23 13:41:40;;;;;;;13.00;10.30;;;;;;;29.43;49.85;99074.95;223360;182;146327;-60
2023/08/23 13:46:49;;;;;;;12.60;10.30;;;;;;;29.16;50.20;99081.35;223225;182;140441;-60
2023/08/23 13:51:53;;;;;;;10.90;9.70;;;;;;;28.93;50.48;99076.18;223287;182;137203;-59
2023/08/23 13:56:56;;;;;;;10.60;8.60;;;;;;;28.75;51.12;99078.46;223415;181;145830;-61
2023/08/23 14:01:59;;;;;;;11.80;9.00;;;;;;;28.96;51.62;99076.14;223234;182;139060;-59
2023/08/23 14:07:03;;;;;;;13.80;9.00;;;;;;;28.95;51.11;99077.91;223282;182;249391;-58
2023/08/23 14:12:06;;;;;;;8.30;6.30;;;;;;;28.64;50.89;99081.30;223319;182;145852;-58
2023/08/23 14:17:10;;;;;;;10.30;5.30;;;;;;;28.43;51.28;99079.83;223383;183;138874;-58
2023/08/23 14:22:13;;;;;;;9.50;7.20;;;;;;;28.67;51.34;99069.58;223321;182;137981;-59
2023/08/23 14:27:16;;;;;;;7.50;5.40;;;;;;;28.69;50.31;99069.21;223306;182;146433;-58
2023/08/23 14:32:20;;;;;;;7.30;4.40;;;;;;;28.50;50.57;99074.05;223321;182;139150;-60
2023/08/23 14:37:29;;;;;;;8.30;4.80;;;;;;;28.33;50.73;99069.97;223361;182;137972;-58
2023/08/23 14:42:33;;;;;;;7.70;5.20;;;;;;;28.29;51.17;99063.80;223346;182;147361;-61
2023/08/23 14:47:36;;;;;;;6.60;5.50;;;;;;;28.16;51.51;99062.65;223325;182;140507;-58
2023/08/23 14:52:40;;;;;;;7.20;4.60;;;;;;;27.95;51.74;99071.08;223295;182;139093;-60
2023/08/23 14:57:45;;;;;;;4.70;4.10;;;;;;;27.65;51.46;99069.84;223386;182;146265;-59
2023/08/23 15:02:49;;;;;;;5.90;4.10;;;;;;;27.47;51.43;99069.52;223382;182;138939;-60
2023/08/23 15:07:53;;;;;;;5.40;4.00;;;;;;;27.30;51.65;99073.56;223349;182;137432;-59
2023/08/23 15:12:56;;;;;;;4.70;3.70;;;;;;;27.28;51.91;99078.26;223264;182;145857;-60
2023/08/23 15:18:00;;;;;;;7.90;4.20;;;;;;;27.14;51.97;99085.52;223414;183;139320;-59
2023/08/23 15:23:03;;;;;;;5.40;3.80;;;;;;;27.05;52.09;99087.51;223344;183;137090;-58
2023/08/23 15:28:07;;;;;;;11.80;4.90;;;;;;;27.02;52.49;99087.60;223312;182;145522;-60
2023/08/23 15:33:11;;;;;;;6.90;4.70;;;;;;;27.01;52.64;99090.29;223334;183;138763;-60
2023/08/23 15:38:14;;;;;;;8.80;4.20;;;;;;;27.05;52.98;99091.67;223134;182;137437;-60
2023/08/23 15:43:18;;;;;;;9.60;5.30;;;;;;;27.08;53.12;99092.45;223312;182;146379;-59
2023/08/23 15:48:21;;;;;;;8.10;4.50;;;;;;;27.09;53.10;99093.41;223224;182;138670;-58
2023/08/23 15:53:24;;;;;;;6.80;4.20;;;;;;;27.07;52.67;99091.27;223382;182;139233;-60
2023/08/23 15:58:28;;;;;;;7.20;4.10;;;;;;;27.05;52.14;99095.19;223332;181;145758;-62
2023/08/23 16:03:31;;;;;;;7.10;4.90;;;;;;;27.01;51.92;99095.93;223192;181;142905;-61
2023/08/23 16:08:35;;;;;;;6.80;4.20;;;;;;;27.01;51.91;99100.89;223310;182;137614;-60
2023/08/23 16:13:38;;;;;;;7.80;4.40;;;;;;;27.02;52.01;99111.02;223203;182;147550;-61
2023/08/23 16:18:41;;;;;;;10.90;3.90;;;;;;;27.04;51.97;99113.14;223304;182;139831;-61
2023/08/23 16:23:44;;;;;;;5.90;4.10;;;;;;;27.06;52.26;99110.54;223236;182;136624;-59
2023/08/23 16:28:47;;;;;;;7.80;4.70;;;;;;;27.02;52.42;99114.35;223189;182;145754;-59
2023/08/23 16:33:51;;;;;;;11.70;4.50;;;;;;;26.98;52.23;99115.45;223081;183;141632;-61
2023/08/23 16:38:54;;;;;;;8.80;4.60;;;;;;;26.93;52.53;99119.36;223207;181;137023;-61
2023/08/23 16:43:57;;;;;;;8.30;4.40;;;;;;;26.93;52.57;99115.78;223236;182;146622;-60
2023/08/23 16:49:00;;;;;;;11.50;4.70;;;;;;;26.90;52.55;99114.42;223136;182;138993;-59
2023/08/23 16:54:03;;;;;;;9.70;4.50;;;;;;;26.88;52.34;99114.50;223301;182;137476;-60
2023/08/23 16:59:07;;;;;;;14.90;4.70;;;;;;;26.87;52.51;99114.62;223170;182;145881;-60
2023/08/23 17:04:10;;;;;;;8.00;4.20;;;;;;;26.84;52.41;99113.08;223239;204;139839;-60
2023/08/23 17:09:13;;;;;;;6.70;4.50;;;;;;;26.78;52.31;99114.02;223199;182;137358;-58
2023/08/23 17:14:16;;;;;;;7.80;4.30;;;;;;;26.70;52.42;99114.30;223247;179;145623;-60
2023/08/23 17:19:19;;;;;;;6.80;4.80;;;;;;;26.65;52.58;99114.39;223358;182;139295;-57
2023/08/23 17:24:22;;;;;;;5.90;4.30;;;;;;;26.61;52.75;99117.12;223224;182;137703;-56
2023/08/23 17:29:26;;;;;;;8.30;4.70;;;;;;;26.60;52.81;99116.66;223272;183;145866;-59
2023/08/23 17:34:29;;;;;;;7.20;4.90;;;;;;;26.57;52.47;99115.45;223319;182;138991;-58
2023/08/23 17:39:32;;;;;;;8.70;5.70;;;;;;;26.47;52.42;99122.11;223270;183;137266;-60
2023/08/23 17:44:35;;;;;;;13.40;6.70;;;;;;;26.36;52.95;99128.07;223365;182;145749;-56
2023/08/23 17:49:39;;;;;;;14.30;6.90;;;;;;;26.28;53.07;99131.39;223353;183;139027;-57
2023/08/23 17:54:42;;;;;;;14.30;8.20;;;;;;;26.19;53.43;99134.62;223310;183;137639;-59
2023/08/23 17:59:46;;;;;;;16.20;8.10;;;;;;;26.11;53.78;99140.66;223389;183;149897;-62
2023/08/23 18:04:49;;;;;;;11.90;6.60;;;;;;;26.07;54.22;99147.40;223367;182;138029;-59
2023/08/23 18:09:59;;;;;;;8.50;6.20;;;;;;;26.03;54.24;99151.92;223460;182;137743;-59
2023/08/23 18:15:03;;;;;;;9.90;6.00;;;;;;;25.94;54.40;99157.14;223275;182;151078;-59
2023/08/23 18:20:07;;;;;;;10.00;5.80;;;;;;;25.88;54.54;99156.62;223296;182;152564;-60
2023/08/23 18:25:13;;;;;;;15.00;6.70;;;;;;;25.81;54.52;99159.58;223265;182;138511;-59
2023/08/23 18:30:17;;;;;;;13.80;6.20;;;;;;;25.68;55.03;99168.30;223219;183;147715;-59
2023/08/23 18:35:20;;;;;;;12.60;7.20;;;;;;;25.55;55.87;99181.02;223332;181;140070;-60
2023/08/23 18:40:25;;;;;;;12.30;6.80;;;;;;;25.44;56.62;99179.31;223262;182;137256;-58
2023/08/23 18:45:31;;;;;;;15.50;6.60;;;;;;;25.36;57.22;99174.45;223347;182;148060;-58
2023/08/23 18:50:34;;;;;;;13.00;6.90;;;;;;;25.32;57.55;99178.77;223302;183;140518;-59
2023/08/23 18:55:39;;;;;;;9.60;6.90;;;;;;;25.30;57.72;99183.27;223297;182;137850;-61
2023/08/23 19:00:50;;;;;;;14.10;6.50;;;;;;;25.20;57.59;99186.74;223247;183;148230;-60
2023/08/23 19:05:54;;;;;;;12.60;7.70;;;;;;;25.13;57.75;99186.88;223376;183;139148;-61
2023/08/23 19:10:58;;;;;;;16.70;7.00;;;;;;;25.07;57.77;99191.65;223399;182;137605;-58
2023/08/23 19:16:01;;;;;;;10.30;7.10;;;;;;;24.91;57.88;99201.52;223287;182;149150;-59
2023/08/23 19:26:34;;;;;;;9.80;6.30;;;;;;;24.85;58.55;99209.44;221598;193;677700;-60
2023/08/23 19:31:37;;;;;;;12.40;6.60;;;;;;;24.81;58.54;99218.52;222512;188;137018;-58
2023/08/23 19:36:41;;;;;;;7.80;6.10;;;;;;;24.70;58.55;99216.90;222614;187;144760;-58
2023/08/23 19:41:45;;;;;;;8.70;6.20;;;;;;;24.62;58.43;99216.77;223144;183;138952;-61
2023/08/23 19:46:57;;;;;;;9.70;6.30;;;;;;;24.54;58.59;99218.55;223028;184;137159;-59
2023/08/23 19:52:00;;;;;;;10.60;6.00;;;;;;;24.54;58.77;99218.95;223028;185;144323;-60
2023/08/23 19:57:05;;;;;;;9.40;5.90;;;;;;;24.51;58.25;99220.88;223080;184;141512;-61
2023/08/23 20:02:08;;;;;;;9.00;5.80;;;;;;;24.47;58.29;99219.91;223047;184;136992;-58
2023/08/23 20:07:15;;;;;;;8.30;5.30;;;;;;;24.42;57.81;99216.88;223046;184;144190;-62
2023/08/23 20:12:24;;;;;;;10.80;5.30;;;;;;;24.22;57.30;99219.19;223012;184;139411;-63
2023/08/23 20:17:27;;;;;;;10.00;5.20;;;;;;;24.04;56.82;99219.09;223131;184;136554;-62
2023/08/23 20:22:31;;;;;;;6.00;4.60;;;;;;;23.88;56.27;99225.29;223121;183;146483;-63
2023/08/23 20:27:34;;;;;;;8.60;4.50;;;;;;;23.78;56.01;99225.73;223124;184;139014;-64
2023/08/23 20:32:37;;;;;;;5.90;3.90;;;;;;;23.71;55.43;99229.95;223112;184;136813;-64
2023/08/23 20:37:41;;;;;;;5.90;4.00;;;;;;;23.70;55.75;99232.11;223040;184;145548;-61
2023/08/23 20:42:44;;;;;;;8.10;4.90;;;;;;;23.62;55.62;99237.83;223136;184;138967;-63
2023/08/23 20:47:47;;;;;;;7.30;4.80;;;;;;;23.63;55.55;99235.42;223212;184;136999;-59
2023/08/23 20:52:51;;;;;;;11.40;4.80;;;;;;;23.62;55.11;99234.21;223183;184;145903;-63
2023/08/23 20:57:55;;;;;;;8.30;4.10;;;;;;;23.62;54.23;99232.64;223055;184;140381;-62
2023/08/23 21:02:58;;;;;;;6.70;4.50;;;;;;;23.62;53.50;99226.98;223106;184;137852;-62
2023/08/23 21:08:02;;;;;;;7.40;4.10;;;;;;;23.56;53.21;99227.47;223106;180;146996;-61
2023/08/23 21:13:07;;;;;;;5.50;3.40;;;;;;;23.52;53.01;99227.80;223164;184;139009;-61
2023/08/23 21:18:11;;;;;;;8.40;3.70;;;;;;;23.44;53.38;99229.98;223201;184;137758;-62
2023/08/23 21:23:14;;;;;;;8.10;3.90;;;;;;;23.27;53.61;99228.92;223077;184;147090;-61
2023/08/23 21:28:17;;;;;;;9.30;3.80;;;;;;;23.13;53.51;99236.88;223052;184;138626;-61
2023/08/23 21:33:20;;;;;;;6.80;3.40;;;;;;;22.98;53.82;99240.04;223150;184;137912;-62
2023/08/23 21:38:25;;;;;;;;;;;;;;;22.85;54.26;99237.02;223119;184;147366;-61
2023/08/23 21:43:30;;;;;;;7.80;3.90;;;;;;;22.71;54.47;99235.86;223111;184;138831;-61
2023/08/23 21:48:34;;;;;;;6.40;3.70;;;;;;;22.56;55.40;99238.94;223133;184;137372;-62
2023/08/23 21:53:37;;;;;;;5.80;3.80;;;;;;;22.44;55.88;99244.02;223145;184;145901;-60
2023/08/23 21:58:40;;;;;;;6.00;3.60;;;;;;;22.32;56.45;99247.34;223141;184;140207;-61
2023/08/23 22:03:44;;;;;;;9.80;4.10;;;;;;;22.26;56.75;99250.74;223206;184;137353;-61
2023/08/23 22:08:48;;;;;;;8.00;4.30;;;;;;;22.20;56.79;99252.61;223435;182;145435;-63
2023/08/23 22:13:51;;;;;;;7.60;4.30;;;;;;;22.12;57.05;99256.05;223482;182;140544;-60
2023/08/23 22:18:54;;;;;;;7.90;4.50;;;;;;;22.08;57.08;99259.32;223381;183;137701;-62
2023/08/23 22:23:58;;;;;;;7.20;4.40;;;;;;;22.06;57.29;99262.86;223472;182;146167;-59
2023/08/23 22:29:01;;;;;;;6.00;4.00;;;;;;;22.04;57.72;99259.51;223355;182;141701;-63
2023/08/23 22:34:04;;;;;;;8.10;4.70;;;;;;;22.05;57.98;99254.89;223435;182;136868;-60
2023/08/23 22:39:08;;;;;;;6.60;4.20;;;;;;;22.06;57.13;99250.52;223430;182;145866;-61
2023/08/23 22:44:11;;;;;;;6.90;4.50;;;;;;;22.05;56.74;99248.77;223366;182;138515;-62
2023/08/23 22:49:14;;;;;;;6.60;4.50;;;;;;;22.04;56.64;99250.27;223393;182;136590;-60
2023/08/23 22:54:17;;;;;;;8.40;4.70;;;;;;;22.01;57.03;99249.55;223439;182;146321;-58
2023/08/23 22:59:21;;;;;;;7.50;4.30;;;;;;;21.96;57.02;99248.40;223392;183;138828;-57
2023/08/23 23:04:24;;;;;;;6.90;4.20;;;;;;;21.95;57.25;99253.79;223335;183;138190;-57
2023/08/23 23:09:28;;;;;;;5.90;4.00;;;;;;;21.92;57.04;99256.41;223374;182;146273;-58
2023/08/23 23:14:31;;;;;;;9.00;3.80;;;;;;;21.89;56.94;99258.55;223140;182;140126;-61
2023/08/23 23:19:34;;;;;;;5.90;3.90;;;;;;;21.88;56.62;99259.41;223471;182;137004;-61
2023/08/23 23:24:37;;;;;;;7.20;4.00;;;;;;;21.83;56.93;99251.28;223288;182;145969;-61
2023/08/23 23:29:43;;;;;;;9.20;3.80;;;;;;;21.78;57.06;99245.88;223367;183;138650;-60
2023/08/23 23:34:47;;;;;;;7.50;4.10;;;;;;;21.69;57.04;99238.75;223386;182;136409;-61
2023/08/23 23:39:52;;;;;;;7.00;3.40;;;;;;;21.64;57.41;99238.82;223334;182;145957;-60
2023/08/23 23:44:55;;;;;;;6.40;3.50;;;;;;;21.58;57.30;99239.03;223388;182;139662;-61
2023/08/23 23:49:59;;;;;;;9.30;3.60;;;;;;;21.52;57.39;99238.42;223402;182;137471;-62
2023/08/23 23:55:03;;;;;;;7.30;3.80;;;;;;;21.45;57.62;99237.36;223353;182;148108;-59
